createdAt,value
2017-12-17T00:00:04.594Z,1.8
2017-12-17T00:05:02.456Z,2.0
2017-12-17T00:10:03.096Z,2.0
2017-12-17T00:15:02.496Z,2.0
2017-12-17T00:20:03.164Z,2.0
2017-12-17T00:25:02.638Z,1.8
2017-12-17T00:30:03.248Z,1.8
2017-12-17T00:35:02.732Z,1.8
2017-12-17T00:40:03.365Z,1.8
2017-12-17T00:45:02.804Z,2.0
2017-12-17T00:50:02.497Z,1.8
2017-12-17T00:55:02.898Z,1.8
2017-12-17T01:00:03.318Z,1.7
2017-12-17T01:05:03.245Z,1.8
2017-12-17T01:10:02.852Z,1.7
2017-12-17T01:15:03.369Z,1.6
2017-12-17T01:20:02.824Z,1.6
2017-12-17T01:25:02.546Z,1.6
2017-12-17T01:30:03.012Z,1.6
2017-12-17T01:35:02.713Z,1.6
2017-12-17T01:40:03.281Z,1.6
2017-12-17T01:45:02.916Z,1.6
2017-12-17T01:50:02.604Z,1.3
2017-12-17T01:55:03.119Z,1.3
2017-12-17T02:00:02.617Z,1.3
2017-12-17T02:05:03.156Z,1.3
2017-12-17T02:10:02.724Z,1.3
2017-12-17T02:15:03.151Z,1.3
2017-12-17T02:20:02.541Z,1.3
2017-12-17T02:25:03.325Z,1.3
2017-12-17T02:30:02.944Z,1.3
2017-12-17T02:35:02.617Z,1.3
2017-12-17T02:40:03.323Z,1.6
2017-12-17T02:45:02.789Z,1.2
2017-12-17T02:50:03.358Z,1.2
2017-12-17T02:55:02.937Z,1.1
2017-12-17T03:00:02.513Z,1.1
2017-12-17T03:05:03.114Z,1.1
2017-12-17T03:10:02.676Z,1.1
2017-12-17T03:15:03.342Z,0.8
2017-12-17T03:20:02.862Z,0.8
2017-12-17T03:25:03.370Z,0.8
2017-12-17T03:30:02.849Z,0.8
2017-12-17T03:35:02.500Z,0.7
2017-12-17T03:40:02.995Z,0.8
2017-12-17T03:45:02.594Z,1.1
2017-12-17T03:50:03.136Z,1.1
2017-12-17T03:55:02.700Z,0.8
2017-12-17T04:00:03.251Z,0.8
2017-12-17T04:05:02.733Z,0.7
2017-12-17T04:10:03.283Z,0.7
2017-12-17T04:15:02.671Z,0.6
2017-12-17T04:20:03.083Z,0.6
2017-12-17T04:25:02.653Z,0.6
2017-12-17T04:30:03.020Z,0.6
2017-12-17T04:35:02.727Z,0.6
2017-12-17T04:40:03.256Z,0.4
2017-12-17T04:45:02.838Z,0.6
2017-12-17T04:50:02.490Z,0.6
2017-12-17T04:55:03.077Z,0.6
2017-12-17T05:00:02.595Z,0.6
2017-12-17T05:05:03.054Z,0.6
2017-12-17T05:10:02.587Z,0.6
2017-12-17T05:15:03.027Z,0.4
2017-12-17T05:20:02.512Z,0.6
2017-12-17T05:25:02.952Z,0.4
2017-12-17T05:30:02.506Z,0.4
2017-12-17T05:35:03.060Z,0.3
2017-12-17T05:40:02.728Z,0.3
2017-12-17T05:45:02.397Z,0.4
2017-12-17T05:50:03.193Z,0.3
2017-12-17T05:55:02.806Z,0.3
2017-12-17T06:00:03.334Z,0.3
2017-12-17T06:05:02.892Z,0.4
2017-12-17T06:10:02.420Z,0.3
2017-12-17T06:15:02.912Z,0.1
2017-12-17T06:25:03.234Z,0.1
2017-12-17T06:30:02.822Z,0.0
2017-12-17T06:35:03.258Z,0.0
2017-12-17T06:40:02.742Z,0.0
2017-12-17T06:45:03.163Z,0.0
2017-12-17T06:50:02.589Z,-0.3
2017-12-17T06:55:03.013Z,-0.3
2017-12-17T07:00:02.667Z,0.0
2017-12-17T07:05:03.160Z,0.0
2017-12-17T07:10:02.664Z,0.0
2017-12-17T07:15:03.163Z,0.1
2017-12-17T07:20:02.688Z,0.0
2017-12-17T07:25:03.220Z,0.1
2017-12-17T07:30:02.623Z,0.0
2017-12-17T07:35:03.262Z,0.0
2017-12-17T07:40:02.934Z,0.0
2017-12-17T07:45:02.784Z,0.0
2017-12-17T07:50:03.247Z,0.1
2017-12-17T07:55:02.942Z,0.1
2017-12-17T08:00:02.447Z,0.1
2017-12-17T08:05:02.900Z,0.1
2017-12-17T08:10:02.424Z,-0.3
2017-12-17T08:15:02.894Z,-0.3
2017-12-17T08:20:02.449Z,0.0
2017-12-17T08:25:03.054Z,0.0
2017-12-17T08:30:02.678Z,0.1
2017-12-17T08:35:03.238Z,0.1
2017-12-17T08:40:02.724Z,0.3
2017-12-17T08:45:02.384Z,0.3
2017-12-17T08:50:02.995Z,0.3
2017-12-17T08:55:02.457Z,0.6
2017-12-17T09:00:03.073Z,0.7
2017-12-17T09:05:02.528Z,0.8
2017-12-17T09:10:03.284Z,1.1
2017-12-17T09:15:02.865Z,1.6
2017-12-17T09:20:02.526Z,1.3
2017-12-17T09:25:03.088Z,1.7
2017-12-17T09:30:02.646Z,2.0
2017-12-17T09:35:03.364Z,2.2
2017-12-17T09:40:03.015Z,2.9
2017-12-17T09:45:02.678Z,2.9
2017-12-17T09:50:03.306Z,2.4
2017-12-17T09:55:02.762Z,2.5
2017-12-17T10:00:03.294Z,2.5
2017-12-17T10:05:02.748Z,2.5
2017-12-17T10:10:02.415Z,1.7
2017-12-17T10:15:03.009Z,1.1
2017-12-17T10:20:02.555Z,0.8
2017-12-17T10:25:03.219Z,0.7
2017-12-17T10:30:02.760Z,0.8
2017-12-17T10:35:02.433Z,0.7
2017-12-17T10:40:03.039Z,1.1
2017-12-17T10:45:02.654Z,0.8
2017-12-17T10:50:03.319Z,0.8
2017-12-17T10:55:02.806Z,1.1
2017-12-17T11:00:02.418Z,1.2
2017-12-17T11:05:03.045Z,1.6
2017-12-17T11:10:02.590Z,1.7
2017-12-17T11:15:03.240Z,1.8
2017-12-17T11:20:02.952Z,1.8
2017-12-17T11:25:02.643Z,1.7
2017-12-17T11:30:03.267Z,1.7
2017-12-17T11:35:02.804Z,1.8
2017-12-17T11:40:03.329Z,1.7
2017-12-17T11:45:02.845Z,1.7
2017-12-17T11:50:03.379Z,1.8
2017-12-17T11:55:03.034Z,1.7
2017-12-17T12:00:02.513Z,1.6
2017-12-17T12:05:03.100Z,1.3
2017-12-17T12:10:02.747Z,1.3
2017-12-17T12:15:03.222Z,1.3
2017-12-17T12:20:02.700Z,1.6
2017-12-17T12:25:03.171Z,1.6
2017-12-17T12:30:02.722Z,1.6
2017-12-17T12:35:02.384Z,1.7
2017-12-17T12:40:03.014Z,1.8
2017-12-17T12:45:02.493Z,1.7
2017-12-17T12:50:03.156Z,1.7
2017-12-17T12:55:02.657Z,1.7
2017-12-17T13:00:03.269Z,1.7
2017-12-17T13:05:02.862Z,1.8
2017-12-17T13:10:02.502Z,1.8
2017-12-17T13:15:03.128Z,2.0
2017-12-17T13:20:02.607Z,1.8
2017-12-17T13:25:03.254Z,1.8
2017-12-17T13:30:02.641Z,2.0
2017-12-17T13:35:02.403Z,2.0
2017-12-17T13:40:02.951Z,1.8
2017-12-17T13:45:02.538Z,2.0
2017-12-17T13:50:02.987Z,2.0
2017-12-17T13:55:02.443Z,2.0
2017-12-17T14:00:03.073Z,2.2
2017-12-17T14:05:02.716Z,2.2
2017-12-17T14:10:03.287Z,2.0
2017-12-17T14:15:02.785Z,2.0
2017-12-17T14:20:03.231Z,2.0
2017-12-17T14:25:02.659Z,2.0
2017-12-17T14:30:03.216Z,2.0
2017-12-17T14:35:02.897Z,2.0
2017-12-17T14:40:02.413Z,1.8
2017-12-17T14:45:02.991Z,1.8
2017-12-17T14:50:02.497Z,1.8
2017-12-17T14:55:03.154Z,1.8
2017-12-17T15:00:02.645Z,1.8
2017-12-17T15:05:03.124Z,1.7
2017-12-17T15:10:02.773Z,1.7
2017-12-17T15:15:03.280Z,1.8
2017-12-17T15:20:02.763Z,1.8
2017-12-17T15:25:03.379Z,1.7
2017-12-17T15:30:02.876Z,1.7
2017-12-17T15:35:03.301Z,1.7
2017-12-17T15:40:02.906Z,1.7
2017-12-17T15:45:02.471Z,1.7
2017-12-17T15:50:03.047Z,1.7
2017-12-17T15:55:02.713Z,1.7
2017-12-17T16:00:03.272Z,1.7
2017-12-17T16:05:02.853Z,1.7
2017-12-17T16:10:02.394Z,1.8
2017-12-17T16:15:03.054Z,1.8
2017-12-17T16:20:02.707Z,1.7
2017-12-17T16:25:03.183Z,1.8
2017-12-17T16:30:02.580Z,1.8
2017-12-17T16:35:03.065Z,1.8
2017-12-17T16:40:02.537Z,1.8
2017-12-17T16:45:03.046Z,2.0
2017-12-17T16:50:02.625Z,2.0
2017-12-17T16:55:03.063Z,2.2
2017-12-17T17:00:02.635Z,2.2
2017-12-17T17:05:02.418Z,2.2
2017-12-17T17:10:03.103Z,2.4
2017-12-17T17:15:02.709Z,2.2
2017-12-17T17:20:03.161Z,2.4
2017-12-17T17:25:02.650Z,2.4
2017-12-17T17:30:03.147Z,2.4
2017-12-17T17:35:02.694Z,2.5
2017-12-17T17:40:03.259Z,2.5
2017-12-17T17:45:02.798Z,2.5
2017-12-17T17:50:03.276Z,2.5
2017-12-17T17:55:02.831Z,2.7
2017-12-17T18:00:02.500Z,2.7
2017-12-17T18:05:03.086Z,2.7
2017-12-17T18:10:02.666Z,2.7
2017-12-17T18:15:03.157Z,2.9
2017-12-17T18:20:02.693Z,2.9
2017-12-17T18:25:03.156Z,2.9
2017-12-17T18:30:02.660Z,2.9
2017-12-17T18:35:03.209Z,2.9
2017-12-17T18:40:02.758Z,2.9
2017-12-17T18:45:03.307Z,3.0
2017-12-17T18:50:02.897Z,3.0
2017-12-17T18:55:02.504Z,3.0
2017-12-17T19:00:03.094Z,3.0
2017-12-17T19:05:02.533Z,3.0
2017-12-17T19:10:03.101Z,3.0
2017-12-17T19:15:02.570Z,3.0
2017-12-17T19:20:03.032Z,3.0
2017-12-17T19:25:02.552Z,3.0
2017-12-17T19:30:03.052Z,3.0
2017-12-17T19:35:02.563Z,3.0
2017-12-17T19:40:03.033Z,3.0
2017-12-17T19:45:02.481Z,3.0
2017-12-17T19:50:03.112Z,3.2
2017-12-17T19:55:02.578Z,3.0
2017-12-17T20:00:03.140Z,3.2
2017-12-17T20:05:02.577Z,3.0
2017-12-17T20:10:03.190Z,3.2
2017-12-17T20:15:02.796Z,3.2
2017-12-17T20:20:02.419Z,3.0
2017-12-17T20:25:02.966Z,3.0
2017-12-17T20:30:02.582Z,3.0
2017-12-17T20:35:03.158Z,3.0
2017-12-17T20:40:02.754Z,3.2
2017-12-17T20:45:03.331Z,3.0
2017-12-17T20:50:02.869Z,3.2
2017-12-17T20:55:02.810Z,3.2
2017-12-17T21:00:03.310Z,3.0
2017-12-17T21:05:02.985Z,3.2
2017-12-17T21:10:02.505Z,3.0
2017-12-17T21:15:03.348Z,3.0
2017-12-17T21:25:02.529Z,3.0
2017-12-17T21:30:02.910Z,2.9
2017-12-17T21:35:02.509Z,2.9
2017-12-17T21:40:03.054Z,2.7
2017-12-17T21:45:02.560Z,2.5
2017-12-17T21:50:02.945Z,2.4
2017-12-17T21:55:02.500Z,1.7
2017-12-17T22:00:03.218Z,1.6
2017-12-17T22:05:02.842Z,1.6
2017-12-17T22:10:02.509Z,1.6
2017-12-17T22:15:03.099Z,1.3
2017-12-17T22:20:02.769Z,1.3
2017-12-17T22:25:03.384Z,1.2
2017-12-17T22:30:03.218Z,1.2
2017-12-17T22:35:02.766Z,1.2
2017-12-17T22:40:02.591Z,1.2
2017-12-17T22:45:03.286Z,1.1
2017-12-17T22:50:02.769Z,0.8
2017-12-17T22:55:03.220Z,0.8
2017-12-17T23:00:02.675Z,0.7
2017-12-17T23:05:03.108Z,0.4
2017-12-17T23:10:02.639Z,0.4
2017-12-17T23:15:03.088Z,0.4
2017-12-17T23:20:02.718Z,0.4
2017-12-17T23:25:03.304Z,0.4
2017-12-17T23:30:02.653Z,0.3
2017-12-17T23:35:03.230Z,0.3
2017-12-17T23:40:02.712Z,0.3
2017-12-17T23:45:03.165Z,0.3
2017-12-17T23:50:02.749Z,0.3
2017-12-17T23:55:03.228Z,0.1
